Current | Forecast
Updated: 7:00 AM JST on November 22, 2017
Observed at Sendai Airport, Japan
Temperature 28°F
Humidity 93%
Dew Point 27°F
Wind Variable at 1 mph
Pressure 30.27 in (Steady)
Conditions Partly Cloudy
Visibility 6.2 miles
UV 0 out of 16
Clouds (FEW) : 2000 ft
Yesterday's Maximum 46°F
Yesterday's Minimum 32°F approx.
Yesterday's Heating Degree Days 26 approx.
Sunrise6:25 AM JST
Sunset4:22 PM JST
Moon Rise9:14 AM JST
Moon Set7:22 PM JST
Moon PhaseMoon Phase
Waxing Crescent
Raw METARMETAR RJSS 212200Z VRB01KT 9999 FEW020 M02/M03 Q1025


Monday
. High: 84° F.
Tuesday
. High: 84° F.
Wednesday
. High: 75° F.
Thursday
. High: 82° F.
Friday
. High: 86° F.
Saturday
. High: 77° F.
Sunday
. High: 75° F.
Monday
. High: 73° F.

Units: English | Metric

Find the Weather for any City, State or Zipcode, or Country:

U.S. State List | Severe Weather | Tropical Storms | Ski Conditions
United States | Canada | Central America | South America | Asia | Europe | Australia | Africa | Islands

Weather Underground

© Copyright 2017
The Weather Company, LLC